Time;durP1;ratioP1;P1;durP2;ratioP2;P2;SDS_P1;SDS_P2;PMS_P1;PMS_P2;Temp;Humidity;BMP_temperature;BMP_pressure;BME280_temperature;BME280_humidity;BME280_pressure;Samples;Min_cycle;Max_cycle;Signal;HPM_P1;HPM_P2
2023/03/28 05:59:34;;;;;;;16.27;4.73;;;2.40;99.90;;;;;;5097453;22;20286;-94
2023/03/28 06:01:35;;;;;;;8.00;4.43;;;2.50;99.90;;;;;;5093167;23;20185;-90
2023/03/28 06:03:38;;;;;;;12.07;4.60;;;2.50;99.90;;;;;;5093523;23;20156;-93
2023/03/28 06:05:41;;;;;;;10.43;4.60;;;2.50;99.90;;;;;;5093808;23;20157;-91
2023/03/28 06:07:54;;;;;;;20.03;4.67;;;2.60;99.90;;;;;;5095629;23;20156;-93
2023/03/28 06:09:56;;;;;;;18.50;4.50;;;2.70;99.90;;;;;;5119049;23;20163;-91
2023/03/28 06:11:58;;;;;;;13.00;4.57;;;2.80;99.90;;;;;;5119422;23;20234;-90
2023/03/28 06:13:59;;;;;;;12.23;4.57;;;2.80;99.90;;;;;;5094886;23;20145;-90
2023/03/28 06:16:00;;;;;;;11.07;4.80;;;2.70;99.90;;;;;;5119412;23;20202;-90
2023/03/28 06:18:04;;;;;;;14.13;4.63;;;2.70;99.90;;;;;;5095395;23;20611;-91
2023/03/28 06:20:08;;;;;;;12.93;4.20;;;2.70;99.90;;;;;;5095290;23;20153;-91
2023/03/28 06:22:09;;;;;;;12.90;4.70;;;2.80;99.90;;;;;;5150111;23;20191;-93
2023/03/28 06:24:11;;;;;;;16.50;4.60;;;2.90;99.90;;;;;;5108471;23;20157;-90
2023/03/28 06:26:15;;;;;;;13.33;4.87;;;3.00;99.90;;;;;;5140212;23;20157;-88
2023/03/28 06:28:16;;;;;;;12.07;4.57;;;3.10;99.90;;;;;;5098262;23;20188;-91
2023/03/28 06:30:48;;;;;;;11.63;4.27;;;3.10;99.90;;;;;;5120656;23;20179;-91
2023/03/28 06:32:49;;;;;;;14.73;5.10;;;3.20;99.90;;;;;;5119591;23;20151;-90
2023/03/28 06:34:50;;;;;;;19.53;4.47;;;3.40;99.90;;;;;;5094674;23;20607;-90
2023/03/28 06:36:51;;;;;;;10.87;4.37;;;3.50;99.90;;;;;;5094788;23;20180;-90
2023/03/28 06:38:53;;;;;;;15.47;4.73;;;3.50;99.90;;;;;;5119876;23;20190;-92
2023/03/28 06:40:56;;;;;;;13.77;4.17;;;3.50;99.90;;;;;;5095234;23;20185;-93
2023/03/28 06:42:57;;;;;;;12.80;4.50;;;3.50;99.90;;;;;;5094631;23;20193;-90
2023/03/28 06:45:13;;;;;;;14.47;4.43;;;3.50;99.90;;;;;;5097445;23;20587;-91
2023/03/28 06:47:22;;;;;;;13.73;4.10;;;3.70;99.90;;;;;;5119559;23;20155;-91
2023/03/28 06:49:23;;;;;;;11.23;4.13;;;3.80;99.90;;;;;;5094528;23;20286;-90
2023/03/28 06:51:42;;;;;;;10.57;4.13;;;3.90;99.90;;;;;;5122840;23;20218;-90
2023/03/28 06:53:43;;;;;;;10.93;4.20;;;4.00;99.90;;;;;;5119319;23;20152;-92
2023/03/28 06:55:44;;;;;;;19.43;4.40;;;4.00;99.90;;;;;;5094897;23;20188;-91
2023/03/28 06:57:45;;;;;;;11.70;4.27;;;4.10;99.90;;;;;;5094498;23;20153;-91
2023/03/28 06:59:54;;;;;;;14.73;4.27;;;4.00;99.90;;;;;;5095852;23;20172;-91
2023/03/28 07:02:04;;;;;;;18.83;4.17;;;4.10;99.90;;;;;;5096130;23;20226;-91
2023/03/28 07:04:07;;;;;;;12.33;3.80;;;4.10;99.90;;;;;;5095458;23;20536;-91
2023/03/28 07:06:10;;;;;;;14.97;4.63;;;4.30;99.90;;;;;;5094643;23;20157;-91
2023/03/28 07:08:12;;;;;;;9.63;3.80;;;4.40;99.90;;;;;;5094389;23;20157;-91
2023/03/28 07:10:13;;;;;;;12.50;3.53;;;4.40;99.90;;;;;;5094408;23;20160;-92
2023/03/28 07:12:15;;;;;;;13.93;3.90;;;4.60;99.90;;;;;;5119336;23;20575;-92
2023/03/28 07:14:17;;;;;;;14.87;3.73;;;4.70;99.90;;;;;;5094201;23;20164;-92
2023/03/28 07:16:18;;;;;;;14.87;3.60;;;4.80;99.90;;;;;;5094195;23;20229;-92
2023/03/28 07:18:19;;;;;;;16.40;3.67;;;5.00;99.90;;;;;;5094296;23;20161;-91
2023/03/28 07:20:20;;;;;;;16.80;3.90;;;5.20;99.90;;;;;;5094193;23;20562;-92
2023/03/28 07:22:21;;;;;;;9.80;3.53;;;5.40;99.90;;;;;;5094432;23;20196;-91
2023/03/28 07:24:22;;;;;;;11.93;3.00;;;5.50;99.90;;;;;;5094092;23;20686;-93
2023/03/28 07:26:33;;;;;;;14.23;3.20;;;5.40;99.90;;;;;;5096119;23;20149;-91
2023/03/28 07:28:35;;;;;;;14.70;4.00;;;5.40;99.90;;;;;;5094165;23;20153;-92
2023/03/28 07:30:36;;;;;;;11.87;3.50;;;5.30;99.90;;;;;;5094168;23;20192;-94
2023/03/28 07:32:39;;;;;;;18.07;3.43;;;5.30;99.90;;;;;;5094572;23;20220;-93
2023/03/28 07:34:40;;;;;;;16.23;3.93;;;5.40;99.90;;;;;;5118846;23;20603;-92
2023/03/28 07:36:43;;;;;;;9.03;3.53;;;5.50;99.90;;;;;;5094522;23;20153;-93
2023/03/28 07:38:49;;;;;;;14.57;4.00;;;5.70;99.90;;;;;;5094811;23;20153;-91
2023/03/28 07:40:51;;;;;;;15.80;4.03;;;5.80;99.90;;;;;;5118549;23;20156;-92
2023/03/28 07:42:51;;;;;;;13.93;4.07;;;5.80;99.90;;;;;;5143450;23;20281;-91
2023/03/28 07:44:53;;;;;;;10.03;3.40;;;5.80;99.90;;;;;;5094306;23;20153;-92
2023/03/28 07:46:55;;;;;;;10.90;3.63;;;5.80;99.90;;;;;;5118615;23;20151;-92
2023/03/28 07:48:59;;;;;;;12.70;3.70;;;5.70;99.90;;;;;;5094533;23;20227;-92
2023/03/28 07:51:00;;;;;;;21.67;3.27;;;5.60;99.90;;;;;;5094243;23;20232;-91
2023/03/28 07:53:01;;;;;;;11.23;3.80;;;6.00;99.90;;;;;;5094162;23;20153;-92
2023/03/28 07:55:06;;;;;;;14.67;2.97;;;6.10;99.90;;;;;;5118415;23;20545;-91
2023/03/28 07:57:10;;;;;;;14.13;3.10;;;6.30;99.90;;;;;;5119020;23;20156;-92
2023/03/28 07:59:34;;;;;;;12.87;3.60;;;6.30;99.90;;;;;;5123038;23;20148;-91
2023/03/28 08:01:35;;;;;;;10.93;2.90;;;6.60;99.90;;;;;;5118362;23;20623;-91
2023/03/28 08:03:39;;;;;;;12.30;3.17;;;6.80;99.90;;;;;;5093977;23;20211;-91
2023/03/28 08:05:40;;;;;;;14.53;3.27;;;6.50;99.90;;;;;;5118344;23;20174;-91
2023/03/28 08:07:45;;;;;;;18.63;3.07;;;6.60;99.90;;;;;;5094288;23;20164;-90
2023/03/28 08:09:48;;;;;;;10.93;3.43;;;6.80;99.90;;;;;;5118686;23;20180;-92
2023/03/28 08:11:54;;;;;;;15.23;3.20;;;7.10;99.90;;;;;;5094541;23;20554;-91
2023/03/28 08:13:55;;;;;;;16.53;3.17;;;6.90;99.90;;;;;;5094185;23;20157;-91
2023/03/28 08:15:57;;;;;;;16.27;3.67;;;7.00;99.90;;;;;;5094559;23;20153;-91
2023/03/28 08:18:01;;;;;;;12.37;3.40;;;7.00;99.90;;;;;;5094389;23;20156;-91
2023/03/28 08:20:05;;;;;;;18.10;3.67;;;6.90;99.90;;;;;;5094487;23;20152;-91
2023/03/28 08:22:32;;;;;;;13.03;3.20;;;6.90;99.90;;;;;;5098972;23;20215;-91
2023/03/28 08:24:53;;;;;;;17.63;4.33;;;6.80;99.90;;;;;;5129355;23;20575;-91
2023/03/28 08:26:56;;;;;;;14.53;3.77;;;7.10;99.90;;;;;;5143393;23;20537;-90
2023/03/28 08:28:57;;;;;;;15.60;3.20;;;7.10;99.90;;;;;;5118608;23;20144;-91
2023/03/28 08:31:00;;;;;;;17.33;3.37;;;7.10;99.90;;;;;;5118353;23;20176;-92
2023/03/28 08:33:03;;;;;;;11.00;3.23;;;7.20;99.90;;;;;;5142974;23;20175;-91
2023/03/28 08:35:05;;;;;;;21.63;3.67;;;7.30;99.90;;;;;;5118917;23;20159;-91
2023/03/28 08:37:07;;;;;;;12.63;3.90;;;7.30;99.90;;;;;;5118380;23;20163;-91
2023/03/28 08:39:08;;;;;;;14.17;3.33;;;7.40;99.90;;;;;;5118219;23;20223;-91
2023/03/28 08:41:18;;;;;;;15.50;3.30;;;7.30;99.90;;;;;;5118220;23;20180;-93
2023/03/28 08:43:46;;;;;;;12.13;3.43;;;7.50;99.90;;;;;;5120771;23;20152;-90
2023/03/28 08:45:46;;;;;;;16.20;3.20;;;7.70;99.90;;;;;;5118656;23;20152;-91
2023/03/28 08:48:01;;;;;;;12.43;3.30;;;7.90;99.90;;;;;;5118758;23;20180;-91
2023/03/28 08:50:14;;;;;;;13.67;2.97;;;8.10;99.90;;;;;;5118317;23;20148;-90
2023/03/28 08:52:18;;;;;;;14.30;2.67;;;8.30;99.90;;;;;;5118149;23;20223;-90
2023/03/28 08:54:23;;;;;;;16.77;3.00;;;8.50;99.90;;;;;;5118298;23;20156;-90
2023/03/28 08:56:24;;;;;;;15.80;2.80;;;8.40;99.90;;;;;;5118183;23;20265;-90
2023/03/28 08:58:33;;;;;;;12.43;2.90;;;8.60;99.90;;;;;;5118154;23;20151;-90
2023/03/28 09:00:38;;;;;;;11.10;3.10;;;9.20;99.90;;;;;;5117767;23;20160;-91
2023/03/28 09:02:39;;;;;;;9.87;2.47;;;9.70;99.90;;;;;;5118001;23;20530;-91
2023/03/28 09:04:40;;;;;;;10.73;2.20;;;9.70;99.90;;;;;;5118119;23;20171;-91
2023/03/28 09:07:07;;;;;;;10.73;2.53;;;9.80;99.90;;;;;;5142907;23;20190;-91
2023/03/28 09:09:18;;;;;;;18.17;2.85;;;10.00;99.90;;;;;;5142799;23;20155;-91
2023/03/28 09:11:28;;;;;;;10.25;2.78;;;10.60;99.90;;;;;;5142659;23;20179;-91
2023/03/28 09:13:49;;;;;;;13.25;2.55;;;10.70;99.90;;;;;;5117788;23;20160;-91
2023/03/28 09:15:50;;;;;;;7.93;2.20;;;10.60;99.90;;;;;;5117935;23;20184;-90
2023/03/28 09:18:10;;;;;;;12.30;2.50;;;10.70;99.90;;;;;;5118123;23;20171;-91
2023/03/28 09:20:18;;;;;;;11.00;2.42;;;10.90;99.90;;;;;;5117641;23;20235;-90
2023/03/28 09:23:09;;;;;;;7.53;2.05;;;10.70;99.90;;;;;;5142913;23;20194;-91
2023/03/28 09:25:57;;;;;;;11.95;2.60;;;10.80;99.90;;;;;;5146586;23;20174;-91
2023/03/28 09:28:13;;;;;;;12.23;2.30;;;10.50;99.90;;;;;;5142936;23;20148;-91
2023/03/28 09:30:19;;;;;;;11.80;2.10;;;10.50;99.90;;;;;;5142752;23;20612;-92
2023/03/28 09:32:27;;;;;;;9.27;2.20;;;10.40;99.90;;;;;;5117565;23;20195;-91
2023/03/28 09:34:42;;;;;;;10.77;2.08;;;10.30;99.90;;;;;;5143095;23;20162;-91
2023/03/28 09:36:44;;;;;;;6.63;1.83;;;10.00;99.90;;;;;;5142799;23;20150;-92
2023/03/28 09:38:57;;;;;;;7.47;1.63;;;10.10;99.90;;;;;;5117964;23;20202;-91
2023/03/28 09:41:01;;;;;;;19.25;2.42;;;10.20;99.90;;;;;;5142463;23;20167;-91
2023/03/28 09:43:52;;;;;;;7.53;1.92;;;10.30;99.90;;;;;;5147174;23;20187;-90
2023/03/28 09:46:07;;;;;;;6.63;1.90;;;10.30;99.90;;;;;;5144620;23;20640;-93
2023/03/28 09:48:34;;;;;;;9.07;2.17;;;10.40;99.90;;;;;;5144904;23;20159;-91
2023/03/28 09:50:39;;;;;;;9.70;2.20;;;10.40;99.90;;;;;;5120319;23;20148;-91
2023/03/28 09:52:40;;;;;;;8.73;1.70;;;10.50;99.90;;;;;;5119498;23;20565;-91
2023/03/28 09:54:42;;;;;;;8.32;1.95;;;10.10;99.90;;;;;;5119056;23;20502;-92
2023/03/28 09:56:45;;;;;;;13.50;1.90;;;10.20;99.90;;;;;;5119440;23;20530;-92
2023/03/28 09:59:20;;;;;;;9.65;1.70;;;10.50;99.90;;;;;;5132968;23;20158;-91
2023/03/28 10:01:35;;;;;;;13.63;1.63;;;10.70;99.90;;;;;;5144257;23;20175;-91
2023/03/28 10:03:56;;;;;;;7.82;1.70;;;10.60;99.90;;;;;;5147765;23;20158;-91
2023/03/28 10:06:22;;;;;;;12.02;1.95;;;10.60;99.90;;;;;;5144029;23;20151;-90
2023/03/28 10:08:34;;;;;;;5.75;1.60;;;10.80;99.90;;;;;;5119941;23;20238;-90
2023/03/28 10:10:58;;;;;;;12.65;1.92;;;10.80;99.90;;;;;;5143996;23;20227;-91
2023/03/28 10:13:03;;;;;;;7.20;1.50;;;10.60;99.90;;;;;;5119495;23;20152;-91
2023/03/28 10:15:07;;;;;;;8.32;1.50;;;10.50;99.90;;;;;;5119347;23;20163;-90
2023/03/28 10:17:30;;;;;;;8.80;1.85;;;10.50;99.90;;;;;;5148137;23;20166;-92
2023/03/28 10:19:34;;;;;;;11.82;2.08;;;10.30;99.90;;;;;;5144430;23;20163;-92
2023/03/28 10:21:47;;;;;;;8.18;1.70;;;10.40;99.90;;;;;;5143903;23;20179;-90
2023/03/28 10:24:03;;;;;;;12.30;2.10;;;10.20;99.90;;;;;;5120093;23;20156;-91
2023/03/28 10:26:04;;;;;;;9.15;1.92;;;10.10;99.90;;;;;;5143872;23;20171;-90
2023/03/28 10:28:12;;;;;;;8.20;2.17;;;9.80;99.90;;;;;;5119339;23;20184;-91
2023/03/28 10:30:12;;;;;;;9.53;2.27;;;9.70;99.90;;;;;;5143909;23;20207;-91
2023/03/28 10:32:26;;;;;;;15.43;2.38;;;9.80;99.90;;;;;;5118830;23;20180;-91
2023/03/28 10:35:00;;;;;;;8.18;2.40;;;10.00;99.90;;;;;;5148086;23;20210;-90
2023/03/28 10:37:25;;;;;;;11.13;1.98;;;10.30;99.90;;;;;;5121739;23;20160;-90
2023/03/28 10:40:16;;;;;;;15.33;2.60;;;10.40;99.90;;;;;;5134011;23;20142;-91
2023/03/28 10:42:44;;;;;;;4.70;1.70;;;10.40;99.90;;;;;;5144721;23;20218;-91
2023/03/28 10:45:28;;;;;;;9.88;2.08;;;10.30;99.90;;;;;;5146288;23;20155;-90
2023/03/28 10:47:30;;;;;;;11.77;2.30;;;10.50;99.90;;;;;;5118823;23;20652;-91
2023/03/28 10:49:45;;;;;;;12.60;2.40;;;10.40;99.90;;;;;;5120042;23;20162;-91
2023/03/28 10:51:48;;;;;;;8.93;2.08;;;10.60;99.90;;;;;;5119242;23;20172;-91
2023/03/28 10:54:01;;;;;;;11.05;2.05;;;10.60;99.90;;;;;;5119012;23;20152;-91
2023/03/28 10:56:26;;;;;;;5.82;1.80;;;10.60;99.90;;;;;;5118948;23;20587;-91
2023/03/28 10:58:57;;;;;;;8.82;2.45;;;10.60;99.90;;;;;;5119274;23;20242;-91
2023/03/28 11:01:23;;;;;;;8.70;2.00;;;10.90;99.90;;;;;;5119831;23;20250;-91
2023/03/28 11:03:56;;;;;;;7.80;2.17;;;11.30;99.90;;;;;;5121408;23;20164;-92
2023/03/28 11:06:15;;;;;;;7.57;2.20;;;11.20;99.90;;;;;;5143879;23;20147;-91
2023/03/28 11:08:35;;;;;;;8.93;2.40;;;11.50;99.90;;;;;;5119540;23;20486;-91
2023/03/28 11:11:13;;;;;;;8.25;2.20;;;11.60;99.90;;;;;;5120110;23;20148;-91
2023/03/28 11:13:33;;;;;;;7.57;1.95;;;11.50;99.90;;;;;;5119801;23;20460;-91
2023/03/28 11:16:16;;;;;;;11.15;2.17;;;11.90;99.90;;;;;;5119172;23;20183;-91
2023/03/28 11:18:51;;;;;;;9.68;2.65;;;11.90;99.90;;;;;;5119653;23;20682;-91
2023/03/28 11:21:18;;;;;;;7.15;2.70;;;12.00;99.90;;;;;;5119356;23;20168;-90
2023/03/28 11:23:44;;;;;;;9.80;2.88;;;12.00;99.90;;;;;;5143609;23;20164;-92
2023/03/28 11:26:09;;;;;;;10.27;3.47;;;12.10;99.90;;;;;;5147663;23;20217;-90
2023/03/28 11:28:54;;;;;;;10.95;3.05;;;12.20;99.90;;;;;;5125960;23;20182;-91
2023/03/28 11:30:58;;;;;;;12.32;2.88;;;12.20;99.90;;;;;;5118575;23;20179;-91
2023/03/28 11:33:56;;;;;;;11.90;2.67;;;12.20;99.90;;;;;;5143374;23;20230;-91
2023/03/28 11:36:06;;;;;;;9.98;2.55;;;12.30;99.90;;;;;;5118683;23;20183;-90
2023/03/28 11:38:12;;;;;;;14.95;3.53;;;12.30;99.90;;;;;;5118614;23;20175;-90
2023/03/28 11:40:27;;;;;;;13.77;4.32;;;12.50;99.90;;;;;;5119201;23;20186;-90
2023/03/28 11:42:44;;;;;;;16.38;4.43;;;12.50;99.90;;;;;;5119680;23;20191;-90
2023/03/28 11:44:57;;;;;;;14.48;4.10;;;12.50;99.90;;;;;;5119091;23;20299;-91
2023/03/28 11:47:27;;;;;;;12.88;4.32;;;12.50;99.90;;;;;;5143489;23;20150;-91
2023/03/28 11:49:42;;;;;;;19.60;5.18;;;12.30;99.90;;;;;;5120402;23;20152;-90
2023/03/28 11:52:34;;;;;;;14.90;5.13;;;12.30;99.90;;;;;;5143195;23;20175;-91
2023/03/28 11:54:46;;;;;;;15.18;5.00;;;12.20;99.90;;;;;;5118560;23;20151;-92
2023/03/28 11:57:10;;;;;;;17.00;4.82;;;12.50;99.90;;;;;;5143356;23;20212;-91
2023/03/28 11:59:47;;;;;;;14.88;5.13;;;12.20;99.90;;;;;;5147004;23;20155;-90
2023/03/28 12:02:18;;;;;;;10.80;4.45;;;12.40;99.90;;;;;;5118386;23;20535;-90
2023/03/28 12:04:27;;;;;;;15.70;4.68;;;12.70;99.90;;;;;;5095611;23;20178;-91
2023/03/28 12:06:52;;;;;;;13.88;4.55;;;12.50;99.90;;;;;;5118496;23;20235;-90
2023/03/28 12:09:03;;;;;;;10.93;3.80;;;12.40;99.90;;;;;;5118881;23;20621;-91
2023/03/28 12:11:22;;;;;;;16.65;4.53;;;12.50;99.90;;;;;;5119041;23;20172;-90
2023/03/28 12:13:45;;;;;;;14.98;4.82;;;12.50;99.90;;;;;;5120123;23;20148;-90
2023/03/28 12:15:58;;;;;;;13.10;4.13;;;12.50;99.90;;;;;;5143212;23;20645;-89
2023/03/28 12:18:08;;;;;;;10.60;3.65;;;12.40;99.90;;;;;;5143503;23;20322;-91
2023/03/28 12:20:16;;;;;;;14.77;3.80;;;12.20;99.90;;;;;;5118338;23;20152;-90
2023/03/28 12:22:43;;;;;;;11.48;3.72;;;11.70;99.90;;;;;;5143397;23;20191;-90
2023/03/28 12:24:59;;;;;;;11.82;3.95;;;11.60;99.90;;;;;;5142969;23;20217;-91
2023/03/28 12:27:13;;;;;;;10.95;4.18;;;11.60;99.90;;;;;;5119322;23;20163;-90
2023/03/28 12:29:35;;;;;;;11.13;4.43;;;12.00;99.90;;;;;;5118651;23;20152;-91
2023/03/28 12:31:42;;;;;;;13.90;4.47;;;12.20;99.90;;;;;;5118147;23;20179;-90
2023/03/28 12:34:25;;;;;;;13.68;3.83;;;12.20;99.90;;;;;;5119536;23;20156;-90
2023/03/28 12:37:18;;;;;;;19.38;3.90;;;12.30;99.90;;;;;;5124062;23;20156;-89
2023/03/28 12:39:41;;;;;;;10.10;3.50;;;12.30;99.90;;;;;;5143159;23;20214;-91
2023/03/28 12:41:53;;;;;;;15.80;4.38;;;12.20;99.90;;;;;;5119725;23;20184;-92
2023/03/28 12:43:58;;;;;;;13.18;3.88;;;12.30;99.90;;;;;;5142977;23;20214;-92
2023/03/28 12:46:07;;;;;;;8.82;3.58;;;12.30;99.90;;;;;;5119165;23;20207;-91
2023/03/28 12:48:22;;;;;;;11.02;3.72;;;12.40;99.90;;;;;;5143330;23;20684;-92
2023/03/28 12:50:29;;;;;;;14.43;3.85;;;12.10;99.90;;;;;;5118174;23;20253;-91
2023/03/28 12:52:32;;;;;;;12.30;4.13;;;12.40;99.90;;;;;;5143318;23;20258;-91
2023/03/28 12:54:56;;;;;;;12.10;3.72;;;12.70;99.90;;;;;;5118344;23;20152;-91
2023/03/28 12:57:00;;;;;;;13.13;3.00;;;12.90;99.90;;;;;;5143175;23;20200;-91
2023/03/28 12:59:34;;;;;;;10.15;3.10;;;12.80;99.90;;;;;;5118243;23;20158;-92
2023/03/28 13:01:44;;;;;;;8.43;2.97;;;12.60;99.90;;;;;;5118114;23;20195;-90
2023/03/28 13:04:30;;;;;;;7.13;2.90;;;12.50;99.90;;;;;;5146865;23;20155;-91
2023/03/28 13:07:15;;;;;;;11.35;2.95;;;12.20;99.90;;;;;;5139732;23;20155;-93
2023/03/28 13:09:41;;;;;;;9.25;3.15;;;12.60;99.90;;;;;;5142766;23;20151;-90
2023/03/28 13:12:29;;;;;;;11.77;2.95;;;12.50;99.90;;;;;;5117565;23;20172;-91
2023/03/28 13:14:41;;;;;;;15.30;3.38;;;12.50;99.90;;;;;;5139986;23;20155;-96
2023/03/28 13:16:46;;;;;;;10.50;2.72;;;12.50;99.90;;;;;;5143173;23;20158;-91
2023/03/28 13:19:02;;;;;;;9.02;2.92;;;12.10;99.90;;;;;;5118335;23;20203;-94
2023/03/28 13:21:04;;;;;;;9.68;2.78;;;12.10;99.90;;;;;;5144841;23;20172;-91
2023/03/28 13:23:08;;;;;;;7.32;2.10;;;12.20;99.90;;;;;;5144651;23;20186;-91
2023/03/28 13:25:20;;;;;;;6.53;1.85;;;11.90;99.90;;;;;;5144627;23;20163;-91
2023/03/28 13:27:32;;;;;;;6.72;1.70;;;11.80;99.90;;;;;;5119467;23;20572;-92
2023/03/28 13:29:51;;;;;;;6.45;1.65;;;11.70;99.90;;;;;;5144844;23;20158;-91
2023/03/28 13:32:02;;;;;;;6.25;1.73;;;11.40;99.90;;;;;;5144836;23;20227;-91
2023/03/28 13:34:03;;;;;;;8.02;1.70;;;11.70;99.90;;;;;;5144867;23;20586;-91
2023/03/28 13:36:04;;;;;;;3.60;1.60;;;11.90;99.90;;;;;;5119475;23;20191;-91
2023/03/28 13:38:21;;;;;;;5.45;1.70;;;11.70;99.90;;;;;;5119205;23;20198;-90
2023/03/28 13:40:44;;;;;;;9.07;2.10;;;11.60;99.90;;;;;;5119531;23;20610;-91
2023/03/28 13:42:57;;;;;;;7.47;1.80;;;11.30;99.90;;;;;;5119497;23;20252;-92
2023/03/28 13:45:18;;;;;;;8.15;1.90;;;11.40;99.90;;;;;;5144633;23;20154;-90
2023/03/28 13:47:31;;;;;;;7.22;1.90;;;11.50;99.90;;;;;;5144479;23;20162;-91
2023/03/28 13:49:50;;;;;;;10.13;2.13;;;11.60;99.90;;;;;;5144546;23;20279;-89
2023/03/28 13:52:03;;;;;;;7.68;2.40;;;11.60;99.90;;;;;;5119511;23;20168;-91
2023/03/28 13:54:03;;;;;;;5.43;1.60;;;11.50;99.90;;;;;;5119461;23;20645;-91
2023/03/28 13:56:20;;;;;;;10.50;2.00;;;11.50;99.90;;;;;;5119068;23;20153;-90
2023/03/28 13:58:22;;;;;;;15.48;3.17;;;11.70;99.90;;;;;;5119444;23;20160;-91
2023/03/28 14:00:25;;;;;;;4.95;1.80;;;11.90;99.90;;;;;;5144474;23;20273;-91
2023/03/28 14:02:28;;;;;;;7.35;2.17;;;12.00;99.90;;;;;;5144443;23;20186;-90
2023/03/28 14:04:33;;;;;;;6.13;1.63;;;12.00;99.90;;;;;;5119429;23;20159;-91
2023/03/28 14:06:40;;;;;;;7.40;1.55;;;11.80;99.90;;;;;;5144527;23;20148;-91
2023/03/28 14:08:45;;;;;;;7.65;2.20;;;11.80;99.90;;;;;;5144291;23;20148;-95
2023/03/28 14:10:49;;;;;;;8.95;2.25;;;11.70;99.90;;;;;;5144696;23;20191;-91
2023/03/28 14:12:52;;;;;;;6.60;2.50;;;11.50;99.90;;;;;;5144271;23;20222;-90
2023/03/28 14:14:56;;;;;;;11.75;2.22;;;11.60;99.90;;;;;;5144252;23;20549;-91
2023/03/28 14:17:00;;;;;;;7.60;2.10;;;11.80;99.90;;;;;;5144310;23;20175;-91
2023/03/28 14:19:03;;;;;;;8.30;2.20;;;11.80;99.90;;;;;;5144192;23;20578;-91
2023/03/28 14:21:06;;;;;;;8.77;2.30;;;11.80;99.90;;;;;;5144064;23;20231;-90
2023/03/28 14:25:32;;;;;;;9.95;2.47;;;11.90;99.90;;;;;;5126539;23;20275;-91
2023/03/28 14:27:45;;;;;;;7.32;2.42;;;12.00;99.90;;;;;;5144514;23;20156;-90
2023/03/28 14:29:53;;;;;;;11.38;2.63;;;11.80;99.90;;;;;;5143974;23;20147;-91
2023/03/28 14:31:54;;;;;;;9.80;2.40;;;11.90;99.90;;;;;;5144133;23;20538;-90
2023/03/28 14:33:57;;;;;;;6.40;2.10;;;11.70;99.90;;;;;;5119737;23;20151;-90
2023/03/28 14:36:03;;;;;;;12.85;2.30;;;11.70;99.90;;;;;;5119161;23;20152;-91
2023/03/28 14:38:12;;;;;;;9.55;2.50;;;11.50;99.90;;;;;;5118959;23;20152;-90
2023/03/28 14:40:20;;;;;;;7.55;2.33;;;11.40;99.90;;;;;;5143792;23;20159;-91
2023/03/28 14:42:22;;;;;;;10.38;2.95;;;11.30;99.90;;;;;;5118869;23;20269;-91
2023/03/28 14:44:23;;;;;;;8.23;2.30;;;11.30;99.90;;;;;;5118989;23;20491;-91
2023/03/28 14:46:27;;;;;;;6.43;2.40;;;11.30;99.90;;;;;;5143949;23;20535;-90
2023/03/28 14:48:29;;;;;;;6.55;2.17;;;11.20;99.90;;;;;;5143988;23;20148;-90
2023/03/28 14:50:33;;;;;;;8.00;2.80;;;11.30;99.90;;;;;;5119199;23;20235;-91
2023/03/28 14:52:39;;;;;;;7.00;2.60;;;11.30;99.90;;;;;;5143709;23;20171;-94
2023/03/28 14:54:45;;;;;;;11.55;2.63;;;11.30;99.90;;;;;;5119458;23;20594;-92
2023/03/28 14:56:46;;;;;;;10.98;2.80;;;11.30;99.90;;;;;;5118886;23;20231;-91
2023/03/28 14:58:49;;;;;;;13.48;2.65;;;11.20;99.90;;;;;;5118828;23;20156;-91
2023/03/28 15:00:53;;;;;;;9.55;3.17;;;11.30;99.90;;;;;;5118881;23;20156;-90
2023/03/28 15:02:54;;;;;;;11.60;3.08;;;11.10;99.90;;;;;;5118521;23;20192;-90
2023/03/28 15:05:00;;;;;;;8.00;2.90;;;10.80;99.90;;;;;;5143706;23;20151;-92
2023/03/28 15:07:02;;;;;;;6.60;2.58;;;10.80;99.90;;;;;;5143734;23;20151;-93
2023/03/28 15:09:21;;;;;;;9.70;2.92;;;10.90;99.90;;;;;;5118910;23;20152;-91
2023/03/28 15:11:29;;;;;;;8.88;3.22;;;10.80;99.90;;;;;;5118435;23;20187;-91
2023/03/28 15:13:35;;;;;;;12.93;2.90;;;10.80;99.90;;;;;;5143601;23;20215;-90
2023/03/28 15:15:42;;;;;;;4.85;2.35;;;10.70;99.90;;;;;;5118705;23;20159;-90
2023/03/28 15:17:44;;;;;;;8.00;2.88;;;10.80;99.90;;;;;;5118936;23;20149;-92
2023/03/28 15:19:51;;;;;;;7.28;2.45;;;10.90;99.90;;;;;;5119050;23;20151;-90
2023/03/28 15:21:56;;;;;;;9.68;2.25;;;11.00;99.90;;;;;;5143544;23;20218;-91
2023/03/28 15:23:58;;;;;;;10.55;2.70;;;11.10;99.90;;;;;;5143572;23;20159;-90
2023/03/28 15:26:03;;;;;;;5.65;2.38;;;11.10;99.90;;;;;;5142595;23;20190;-90
2023/03/28 15:28:09;;;;;;;8.93;2.70;;;11.00;99.90;;;;;;5142638;23;20155;-90
2023/03/28 15:30:16;;;;;;;10.35;2.47;;;11.00;99.90;;;;;;5142228;23;20158;-90
2023/03/28 15:32:19;;;;;;;5.45;2.10;;;11.00;99.90;;;;;;5142344;23;20526;-94
2023/03/28 15:34:22;;;;;;;8.38;2.50;;;11.00;99.90;;;;;;5142394;23;20198;-89
2023/03/28 15:36:33;;;;;;;6.33;2.57;;;10.90;99.90;;;;;;5142531;23;20147;-90
2023/03/28 15:38:38;;;;;;;8.68;2.50;;;10.80;99.90;;;;;;5142402;23;20179;-90
2023/03/28 15:40:41;;;;;;;11.93;2.10;;;11.00;99.90;;;;;;5117304;23;20231;-90
2023/03/28 15:42:45;;;;;;;7.32;2.13;;;10.90;99.90;;;;;;5141996;23;20214;-90
2023/03/28 15:44:58;;;;;;;6.32;2.17;;;10.60;99.90;;;;;;5142522;23;20176;-89
2023/03/28 15:47:21;;;;;;;8.02;1.80;;;10.70;99.90;;;;;;5117949;23;20674;-90
2023/03/28 15:49:22;;;;;;;8.50;2.30;;;10.60;99.90;;;;;;5143133;23;20498;-90
2023/03/28 15:51:23;;;;;;;7.10;2.03;;;10.60;99.90;;;;;;5117851;23;20227;-94
2023/03/28 15:53:27;;;;;;;8.40;2.10;;;10.30;99.90;;;;;;5117726;23;20157;-91
2023/03/28 15:55:30;;;;;;;7.35;1.95;;;10.00;99.90;;;;;;5118130;23;20511;-90
2023/03/28 15:57:31;;;;;;;5.47;2.03;;;10.30;99.90;;;;;;5117556;23;20223;-91
2023/03/28 15:59:38;;;;;;;8.02;2.20;;;10.40;99.90;;;;;;5117587;23;20202;-90
2023/03/28 16:01:38;;;;;;;5.72;2.10;;;10.40;99.90;;;;;;5117280;23;20168;-91
2023/03/28 16:03:39;;;;;;;7.05;1.90;;;10.30;99.90;;;;;;5117729;23;20162;-90
2023/03/28 16:05:46;;;;;;;5.77;2.00;;;10.30;99.90;;;;;;5117393;23;20152;-90
2023/03/28 16:07:49;;;;;;;6.25;1.77;;;10.30;99.90;;;;;;5117522;23;20158;-89
2023/03/28 16:09:50;;;;;;;6.57;1.70;;;10.30;99.90;;;;;;5142192;23;20162;-90
2023/03/28 16:12:02;;;;;;;5.83;1.80;;;10.20;99.90;;;;;;5116980;23;20168;-91
2023/03/28 16:14:19;;;;;;;4.87;1.80;;;9.90;99.90;;;;;;5146050;23;20310;-89
2023/03/28 16:16:28;;;;;;;3.53;1.53;;;9.50;99.90;;;;;;5143745;23;20505;-90
2023/03/28 16:18:49;;;;;;;5.70;1.77;;;9.40;99.90;;;;;;5146298;23;20155;-90
2023/03/28 16:20:50;;;;;;;8.37;2.40;;;9.30;99.90;;;;;;5141838;23;20164;-90
2023/03/28 16:22:51;;;;;;;5.93;2.33;;;9.20;99.90;;;;;;5117283;23;20244;-91
2023/03/28 16:24:53;;;;;;;5.10;1.80;;;9.10;99.90;;;;;;5065949;23;1215758;-91
2023/03/28 16:26:54;;;;;;;4.63;1.97;;;8.80;99.90;;;;;;5117984;23;20229;-90
2023/03/28 16:28:55;;;;;;;5.30;1.63;;;8.70;99.90;;;;;;5167905;23;20178;-92
2023/03/28 16:30:55;;;;;;;8.70;2.10;;;8.50;99.90;;;;;;5118093;23;20595;-91
2023/03/28 16:32:56;;;;;;;7.27;2.13;;;8.50;99.90;;;;;;5118933;23;20179;-91
2023/03/28 16:34:57;;;;;;;2.97;1.43;;;8.50;99.90;;;;;;5119176;23;20156;-90
2023/03/28 16:36:58;;;;;;;3.90;2.00;;;8.60;99.90;;;;;;5143161;23;20159;-90
2023/03/28 16:38:59;;;;;;;3.00;1.60;;;8.70;99.90;;;;;;5144342;23;20179;-91
2023/03/28 16:40:59;;;;;;;4.93;1.77;;;8.60;99.90;;;;;;5118069;23;20203;-91
2023/03/28 16:43:00;;;;;;;5.17;2.20;;;8.50;99.90;;;;;;5118226;23;20218;-91
2023/03/28 16:45:01;;;;;;;6.17;2.23;;;8.60;99.90;;;;;;5118410;23;20189;-90
2023/03/28 16:47:02;;;;;;;5.10;2.47;;;8.60;99.90;;;;;;5118496;23;20622;-91
2023/03/28 16:49:03;;;;;;;4.93;2.13;;;8.70;99.90;;;;;;5118104;23;20148;-91
2023/03/28 16:51:05;;;;;;;4.37;2.00;;;8.70;99.90;;;;;;5144179;23;20171;-93
2023/03/28 16:53:06;;;;;;;4.20;1.90;;;8.60;99.90;;;;;;5118579;23;20149;-91
2023/03/28 16:55:09;;;;;;;7.03;2.23;;;8.60;99.90;;;;;;5118960;23;20554;-92
2023/03/28 16:57:10;;;;;;;5.33;2.30;;;8.70;99.90;;;;;;5119602;23;20267;-91
2023/03/28 16:59:11;;;;;;;5.20;2.30;;;8.70;99.90;;;;;;5119092;23;20203;-92
2023/03/28 17:01:17;;;;;;;6.37;2.20;;;8.80;99.90;;;;;;5118296;23;20176;-91
2023/03/28 17:03:18;;;;;;;5.83;2.33;;;8.90;99.90;;;;;;5143406;23;20588;-91
2023/03/28 17:05:19;;;;;;;6.77;2.20;;;8.90;99.90;;;;;;5118119;23;20152;-91
2023/03/28 17:07:19;;;;;;;4.83;1.87;;;8.90;99.90;;;;;;5119446;23;20163;-91
2023/03/28 17:09:21;;;;;;;5.47;1.77;;;8.90;99.90;;;;;;5143622;23;20230;-91
2023/03/28 17:11:22;;;;;;;6.93;2.20;;;8.90;99.90;;;;;;5143391;23;20167;-91
2023/03/28 17:13:23;;;;;;;5.07;2.00;;;9.00;99.90;;;;;;5120465;23;20242;-91
2023/03/28 17:15:23;;;;;;;4.83;2.33;;;9.00;99.90;;;;;;5118385;23;20148;-91
2023/03/28 17:17:24;;;;;;;5.33;2.00;;;8.90;99.90;;;;;;5118209;23;20163;-90